Floral, Canada
Current Conditions -  °F | °C
As of 3:00 AM on Sunday 26 Oct 2014 (Local Time) from CYXE Reporting Station
Overcast Overcast  
Wind Chill: 35°   Ceiling: 15000
Heat Index: 43°   Visibility: 15mi
Dew Point: 30°   Wind: 16mph
Humidity: 61%   Direction: 120°ESE
Pressure: 29.58"   Gusts: 25mph
Location:  52.07°N, 106.47°W
Report Text: CYXE 260900Z 12014G22KT 15SM BKN150 OVC200 06/M01 A2958 RMK AC6CI2 SLP032
Loading
Personal Weather Stations






























Interactive Weather Map
Tropical Storm Tracking
New forecast layout! Learn more

10-Day Weather Forecast

Advertisements
Track Severe Weather on mobile